sensor_id;sensor_type;location;lat;lon;timestamp;P1;durP1;ratioP1;P2;durP2;ratioP2
5995;SDS011;3026;53.612;7.278;2023-03-31T00:01:14;26.30;;;4.17;;
5995;SDS011;3026;53.612;7.278;2023-03-31T00:03:41;17.77;;;4.20;;
5995;SDS011;3026;53.612;7.278;2023-03-31T00:06:09;25.93;;;4.57;;
5995;SDS011;3026;53.612;7.278;2023-03-31T00:08:42;21.07;;;5.10;;
5995;SDS011;3026;53.612;7.278;2023-03-31T00:11:09;22.00;;;4.13;;
5995;SDS011;3026;53.612;7.278;2023-03-31T00:13:37;22.70;;;3.87;;
5995;SDS011;3026;53.612;7.278;2023-03-31T00:16:06;22.73;;;4.63;;
5995;SDS011;3026;53.612;7.278;2023-03-31T00:18:35;17.80;;;4.17;;
5995;SDS011;3026;53.612;7.278;2023-03-31T00:21:05;20.17;;;3.90;;
5995;SDS011;3026;53.612;7.278;2023-03-31T00:23:33;17.60;;;3.70;;
5995;SDS011;3026;53.612;7.278;2023-03-31T00:26:00;14.37;;;3.67;;
5995;SDS011;3026;53.612;7.278;2023-03-31T00:28:27;20.03;;;4.10;;
5995;SDS011;3026;53.612;7.278;2023-03-31T00:30:58;17.07;;;4.20;;
5995;SDS011;3026;53.612;7.278;2023-03-31T00:33:27;23.93;;;4.63;;
5995;SDS011;3026;53.612;7.278;2023-03-31T00:35:55;24.03;;;4.60;;
5995;SDS011;3026;53.612;7.278;2023-03-31T00:38:26;21.30;;;4.83;;
5995;SDS011;3026;53.612;7.278;2023-03-31T00:40:54;22.70;;;4.30;;
5995;SDS011;3026;53.612;7.278;2023-03-31T00:43:24;22.27;;;4.37;;
5995;SDS011;3026;53.612;7.278;2023-03-31T00:45:54;19.87;;;4.93;;
5995;SDS011;3026;53.612;7.278;2023-03-31T00:48:39;22.93;;;4.23;;
5995;SDS011;3026;53.612;7.278;2023-03-31T00:51:12;20.63;;;3.87;;
5995;SDS011;3026;53.612;7.278;2023-03-31T00:53:40;21.70;;;4.80;;
5995;SDS011;3026;53.612;7.278;2023-03-31T00:56:08;16.17;;;3.83;;
5995;SDS011;3026;53.612;7.278;2023-03-31T00:58:39;23.00;;;4.80;;
5995;SDS011;3026;53.612;7.278;2023-03-31T01:01:09;29.03;;;4.70;;
5995;SDS011;3026;53.612;7.278;2023-03-31T01:03:41;17.87;;;4.20;;
5995;SDS011;3026;53.612;7.278;2023-03-31T01:06:09;22.53;;;4.73;;
5995;SDS011;3026;53.612;7.278;2023-03-31T01:08:36;18.83;;;5.23;;
5995;SDS011;3026;53.612;7.278;2023-03-31T01:11:05;27.20;;;4.97;;
5995;SDS011;3026;53.612;7.278;2023-03-31T01:13:35;25.37;;;5.03;;
5995;SDS011;3026;53.612;7.278;2023-03-31T01:16:03;27.73;;;5.53;;
5995;SDS011;3026;53.612;7.278;2023-03-31T01:18:31;28.87;;;5.47;;
5995;SDS011;3026;53.612;7.278;2023-03-31T01:21:10;22.70;;;5.20;;
5995;SDS011;3026;53.612;7.278;2023-03-31T01:27:06;22.77;;;5.30;;
5995;SDS011;3026;53.612;7.278;2023-03-31T01:30:05;24.40;;;4.83;;
5995;SDS011;3026;53.612;7.278;2023-03-31T01:32:54;25.27;;;4.10;;
5995;SDS011;3026;53.612;7.278;2023-03-31T01:42:00;19.40;;;4.17;;
5995;SDS011;3026;53.612;7.278;2023-03-31T01:44:37;22.70;;;4.27;;
5995;SDS011;3026;53.612;7.278;2023-03-31T01:47:12;25.70;;;5.10;;
5995;SDS011;3026;53.612;7.278;2023-03-31T01:49:43;22.10;;;3.60;;
5995;SDS011;3026;53.612;7.278;2023-03-31T01:52:18;20.47;;;5.50;;
5995;SDS011;3026;53.612;7.278;2023-03-31T01:54:50;21.53;;;4.70;;
5995;SDS011;3026;53.612;7.278;2023-03-31T01:57:25;22.70;;;5.60;;
5995;SDS011;3026;53.612;7.278;2023-03-31T01:59:58;21.37;;;4.47;;
5995;SDS011;3026;53.612;7.278;2023-03-31T02:02:30;27.73;;;5.33;;
5995;SDS011;3026;53.612;7.278;2023-03-31T02:05:04;19.57;;;4.33;;
5995;SDS011;3026;53.612;7.278;2023-03-31T02:07:36;22.23;;;4.80;;
5995;SDS011;3026;53.612;7.278;2023-03-31T02:10:08;25.97;;;5.93;;
5995;SDS011;3026;53.612;7.278;2023-03-31T02:12:39;28.67;;;4.90;;
5995;SDS011;3026;53.612;7.278;2023-03-31T02:15:10;21.43;;;3.70;;
5995;SDS011;3026;53.612;7.278;2023-03-31T02:17:44;18.20;;;4.03;;
5995;SDS011;3026;53.612;7.278;2023-03-31T02:20:15;23.20;;;4.60;;
5995;SDS011;3026;53.612;7.278;2023-03-31T02:22:44;28.17;;;4.97;;
5995;SDS011;3026;53.612;7.278;2023-03-31T02:25:15;21.60;;;4.10;;
5995;SDS011;3026;53.612;7.278;2023-03-31T02:27:48;19.20;;;3.50;;
5995;SDS011;3026;53.612;7.278;2023-03-31T02:30:20;30.80;;;5.17;;
5995;SDS011;3026;53.612;7.278;2023-03-31T02:32:47;20.40;;;3.77;;
5995;SDS011;3026;53.612;7.278;2023-03-31T02:35:14;20.00;;;4.17;;
5995;SDS011;3026;53.612;7.278;2023-03-31T02:37:44;14.17;;;3.93;;
5995;SDS011;3026;53.612;7.278;2023-03-31T02:40:15;20.53;;;4.47;;
5995;SDS011;3026;53.612;7.278;2023-03-31T02:42:44;21.83;;;4.30;;
5995;SDS011;3026;53.612;7.278;2023-03-31T02:48:09;25.33;;;4.50;;
5995;SDS011;3026;53.612;7.278;2023-03-31T02:50:45;24.23;;;5.43;;
5995;SDS011;3026;53.612;7.278;2023-03-31T02:53:35;26.20;;;4.63;;
5995;SDS011;3026;53.612;7.278;2023-03-31T02:59:08;20.33;;;4.67;;
5995;SDS011;3026;53.612;7.278;2023-03-31T03:01:52;19.07;;;4.57;;
5995;SDS011;3026;53.612;7.278;2023-03-31T03:04:35;21.87;;;5.07;;
5995;SDS011;3026;53.612;7.278;2023-03-31T03:07:15;16.57;;;4.93;;
5995;SDS011;3026;53.612;7.278;2023-03-31T03:09:53;21.10;;;4.53;;
5995;SDS011;3026;53.612;7.278;2023-03-31T03:12:30;23.77;;;5.00;;
5995;SDS011;3026;53.612;7.278;2023-03-31T03:15:04;22.33;;;4.27;;
5995;SDS011;3026;53.612;7.278;2023-03-31T03:17:38;18.20;;;4.40;;
5995;SDS011;3026;53.612;7.278;2023-03-31T03:20:07;29.47;;;5.90;;
5995;SDS011;3026;53.612;7.278;2023-03-31T03:22:36;14.93;;;3.80;;
5995;SDS011;3026;53.612;7.278;2023-03-31T03:25:05;18.90;;;3.97;;
5995;SDS011;3026;53.612;7.278;2023-03-31T03:27:34;16.67;;;4.07;;
5995;SDS011;3026;53.612;7.278;2023-03-31T03:30:01;14.17;;;3.77;;
5995;SDS011;3026;53.612;7.278;2023-03-31T03:32:29;19.50;;;3.87;;
5995;SDS011;3026;53.612;7.278;2023-03-31T03:34:59;21.17;;;4.97;;
5995;SDS011;3026;53.612;7.278;2023-03-31T03:37:26;21.20;;;3.90;;
5995;SDS011;3026;53.612;7.278;2023-03-31T03:39:54;10.17;;;2.93;;
5995;SDS011;3026;53.612;7.278;2023-03-31T03:42:21;19.53;;;4.33;;
5995;SDS011;3026;53.612;7.278;2023-03-31T03:44:49;19.50;;;3.60;;
5995;SDS011;3026;53.612;7.278;2023-03-31T03:47:16;20.40;;;4.13;;
5995;SDS011;3026;53.612;7.278;2023-03-31T03:49:42;16.33;;;3.87;;
5995;SDS011;3026;53.612;7.278;2023-03-31T03:52:11;14.27;;;3.57;;
5995;SDS011;3026;53.612;7.278;2023-03-31T03:54:37;16.07;;;3.93;;
5995;SDS011;3026;53.612;7.278;2023-03-31T03:57:04;17.47;;;3.60;;
5995;SDS011;3026;53.612;7.278;2023-03-31T03:59:31;13.67;;;3.43;;
5995;SDS011;3026;53.612;7.278;2023-03-31T04:01:58;20.97;;;4.23;;
5995;SDS011;3026;53.612;7.278;2023-03-31T04:04:25;16.63;;;4.07;;
5995;SDS011;3026;53.612;7.278;2023-03-31T04:06:52;23.43;;;4.20;;
5995;SDS011;3026;53.612;7.278;2023-03-31T04:09:20;16.87;;;4.13;;
5995;SDS011;3026;53.612;7.278;2023-03-31T04:11:47;16.00;;;4.43;;
5995;SDS011;3026;53.612;7.278;2023-03-31T04:14:14;23.87;;;3.63;;
5995;SDS011;3026;53.612;7.278;2023-03-31T04:16:41;19.33;;;3.83;;
5995;SDS011;3026;53.612;7.278;2023-03-31T04:19:10;16.33;;;3.87;;
5995;SDS011;3026;53.612;7.278;2023-03-31T04:21:38;16.07;;;3.50;;
5995;SDS011;3026;53.612;7.278;2023-03-31T04:24:09;20.23;;;3.70;;
5995;SDS011;3026;53.612;7.278;2023-03-31T04:26:41;15.40;;;3.27;;
5995;SDS011;3026;53.612;7.278;2023-03-31T04:29:08;16.17;;;3.77;;
5995;SDS011;3026;53.612;7.278;2023-03-31T04:31:36;14.30;;;3.40;;
5995;SDS011;3026;53.612;7.278;2023-03-31T04:34:06;14.87;;;3.50;;
5995;SDS011;3026;53.612;7.278;2023-03-31T04:36:37;14.07;;;3.30;;
5995;SDS011;3026;53.612;7.278;2023-03-31T04:39:06;14.57;;;3.57;;
5995;SDS011;3026;53.612;7.278;2023-03-31T04:41:35;13.07;;;3.70;;
5995;SDS011;3026;53.612;7.278;2023-03-31T04:44:03;18.17;;;3.63;;
5995;SDS011;3026;53.612;7.278;2023-03-31T04:46:31;16.53;;;5.03;;
5995;SDS011;3026;53.612;7.278;2023-03-31T04:48:58;14.70;;;3.67;;
5995;SDS011;3026;53.612;7.278;2023-03-31T04:51:25;13.37;;;3.30;;
5995;SDS011;3026;53.612;7.278;2023-03-31T04:53:52;20.17;;;3.27;;
5995;SDS011;3026;53.612;7.278;2023-03-31T04:56:19;16.83;;;3.70;;
5995;SDS011;3026;53.612;7.278;2023-03-31T04:58:46;15.80;;;2.80;;
5995;SDS011;3026;53.612;7.278;2023-03-31T05:01:15;11.27;;;3.93;;
5995;SDS011;3026;53.612;7.278;2023-03-31T05:03:43;19.03;;;3.40;;
5995;SDS011;3026;53.612;7.278;2023-03-31T05:06:11;16.40;;;3.60;;
5995;SDS011;3026;53.612;7.278;2023-03-31T05:08:38;13.60;;;3.80;;
5995;SDS011;3026;53.612;7.278;2023-03-31T05:11:05;17.17;;;3.57;;
5995;SDS011;3026;53.612;7.278;2023-03-31T05:13:32;13.03;;;3.70;;
5995;SDS011;3026;53.612;7.278;2023-03-31T05:16:04;11.97;;;3.30;;
5995;SDS011;3026;53.612;7.278;2023-03-31T05:18:33;12.90;;;4.10;;
5995;SDS011;3026;53.612;7.278;2023-03-31T05:21:10;11.40;;;3.83;;
5995;SDS011;3026;53.612;7.278;2023-03-31T05:23:38;10.37;;;3.63;;
5995;SDS011;3026;53.612;7.278;2023-03-31T05:26:05;13.90;;;3.87;;
5995;SDS011;3026;53.612;7.278;2023-03-31T05:28:32;14.47;;;4.23;;
5995;SDS011;3026;53.612;7.278;2023-03-31T05:30:59;12.90;;;4.23;;
5995;SDS011;3026;53.612;7.278;2023-03-31T05:33:27;13.47;;;4.27;;
5995;SDS011;3026;53.612;7.278;2023-03-31T05:35:56;12.33;;;4.20;;
5995;SDS011;3026;53.612;7.278;2023-03-31T05:38:24;7.27;;;3.57;;
5995;SDS011;3026;53.612;7.278;2023-03-31T05:40:53;11.83;;;3.53;;
5995;SDS011;3026;53.612;7.278;2023-03-31T05:43:20;8.57;;;3.37;;
5995;SDS011;3026;53.612;7.278;2023-03-31T05:45:47;8.80;;;3.77;;
5995;SDS011;3026;53.612;7.278;2023-03-31T05:48:14;12.63;;;4.03;;
5995;SDS011;3026;53.612;7.278;2023-03-31T05:50:40;11.80;;;4.07;;
5995;SDS011;3026;53.612;7.278;2023-03-31T05:53:09;9.10;;;4.50;;
5995;SDS011;3026;53.612;7.278;2023-03-31T05:55:36;15.13;;;4.33;;
5995;SDS011;3026;53.612;7.278;2023-03-31T05:58:03;14.33;;;4.37;;
5995;SDS011;3026;53.612;7.278;2023-03-31T06:00:31;10.40;;;4.33;;
5995;SDS011;3026;53.612;7.278;2023-03-31T06:02:58;9.83;;;4.23;;
5995;SDS011;3026;53.612;7.278;2023-03-31T06:05:25;7.37;;;3.67;;
5995;SDS011;3026;53.612;7.278;2023-03-31T06:07:53;14.33;;;4.03;;
5995;SDS011;3026;53.612;7.278;2023-03-31T06:10:21;10.53;;;4.43;;
5995;SDS011;3026;53.612;7.278;2023-03-31T06:12:48;13.17;;;3.83;;
5995;SDS011;3026;53.612;7.278;2023-03-31T06:15:15;11.30;;;4.00;;
5995;SDS011;3026;53.612;7.278;2023-03-31T06:17:42;9.83;;;4.50;;
5995;SDS011;3026;53.612;7.278;2023-03-31T06:20:09;9.60;;;4.33;;
5995;SDS011;3026;53.612;7.278;2023-03-31T06:22:36;9.67;;;3.70;;
5995;SDS011;3026;53.612;7.278;2023-03-31T06:25:04;10.17;;;3.87;;
5995;SDS011;3026;53.612;7.278;2023-03-31T06:27:32;11.27;;;4.60;;
5995;SDS011;3026;53.612;7.278;2023-03-31T06:29:59;5.97;;;3.63;;
5995;SDS011;3026;53.612;7.278;2023-03-31T06:32:26;12.57;;;4.43;;
5995;SDS011;3026;53.612;7.278;2023-03-31T06:34:53;10.53;;;4.17;;
5995;SDS011;3026;53.612;7.278;2023-03-31T06:37:20;11.27;;;4.00;;
5995;SDS011;3026;53.612;7.278;2023-03-31T06:39:47;11.83;;;4.70;;
5995;SDS011;3026;53.612;7.278;2023-03-31T06:42:14;9.40;;;4.13;;
5995;SDS011;3026;53.612;7.278;2023-03-31T06:44:42;10.20;;;4.00;;
5995;SDS011;3026;53.612;7.278;2023-03-31T06:47:09;8.00;;;3.33;;
5995;SDS011;3026;53.612;7.278;2023-03-31T06:49:36;9.17;;;3.77;;
5995;SDS011;3026;53.612;7.278;2023-03-31T06:52:03;8.07;;;4.13;;
5995;SDS011;3026;53.612;7.278;2023-03-31T06:54:30;9.60;;;4.50;;
5995;SDS011;3026;53.612;7.278;2023-03-31T06:56:57;7.20;;;3.60;;
5995;SDS011;3026;53.612;7.278;2023-03-31T06:59:24;5.87;;;3.77;;
5995;SDS011;3026;53.612;7.278;2023-03-31T07:01:52;7.13;;;4.03;;
5995;SDS011;3026;53.612;7.278;2023-03-31T07:04:19;9.63;;;3.63;;
5995;SDS011;3026;53.612;7.278;2023-03-31T07:06:46;7.30;;;4.13;;
5995;SDS011;3026;53.612;7.278;2023-03-31T07:09:13;8.47;;;4.00;;
5995;SDS011;3026;53.612;7.278;2023-03-31T07:11:40;7.57;;;4.13;;
5995;SDS011;3026;53.612;7.278;2023-03-31T07:14:07;12.00;;;4.33;;
5995;SDS011;3026;53.612;7.278;2023-03-31T07:16:34;8.37;;;3.30;;
5995;SDS011;3026;53.612;7.278;2023-03-31T07:19:02;10.23;;;3.83;;
5995;SDS011;3026;53.612;7.278;2023-03-31T07:21:30;11.23;;;4.23;;
5995;SDS011;3026;53.612;7.278;2023-03-31T07:23:57;6.83;;;3.20;;
5995;SDS011;3026;53.612;7.278;2023-03-31T07:26:24;9.77;;;3.53;;
5995;SDS011;3026;53.612;7.278;2023-03-31T07:28:51;8.50;;;3.87;;
5995;SDS011;3026;53.612;7.278;2023-03-31T07:31:20;6.73;;;3.77;;
5995;SDS011;3026;53.612;7.278;2023-03-31T07:33:48;7.20;;;3.37;;
5995;SDS011;3026;53.612;7.278;2023-03-31T07:36:16;7.63;;;3.13;;
5995;SDS011;3026;53.612;7.278;2023-03-31T07:38:44;8.90;;;4.07;;
5995;SDS011;3026;53.612;7.278;2023-03-31T07:41:15;9.17;;;3.40;;
5995;SDS011;3026;53.612;7.278;2023-03-31T07:43:44;6.73;;;3.53;;
5995;SDS011;3026;53.612;7.278;2023-03-31T07:46:15;8.63;;;4.07;;
5995;SDS011;3026;53.612;7.278;2023-03-31T07:48:43;10.93;;;4.50;;
5995;SDS011;3026;53.612;7.278;2023-03-31T07:51:12;6.90;;;3.67;;
5995;SDS011;3026;53.612;7.278;2023-03-31T07:53:40;11.60;;;4.23;;
5995;SDS011;3026;53.612;7.278;2023-03-31T07:56:08;11.57;;;4.20;;
5995;SDS011;3026;53.612;7.278;2023-03-31T07:58:35;5.90;;;3.23;;
5995;SDS011;3026;53.612;7.278;2023-03-31T08:01:02;5.93;;;3.20;;
5995;SDS011;3026;53.612;7.278;2023-03-31T08:03:29;8.23;;;3.50;;
5995;SDS011;3026;53.612;7.278;2023-03-31T08:05:56;6.20;;;3.50;;
5995;SDS011;3026;53.612;7.278;2023-03-31T08:08:23;10.10;;;3.40;;
5995;SDS011;3026;53.612;7.278;2023-03-31T08:10:51;7.87;;;3.73;;
5995;SDS011;3026;53.612;7.278;2023-03-31T08:13:18;8.40;;;4.00;;
5995;SDS011;3026;53.612;7.278;2023-03-31T08:15:46;7.03;;;3.30;;
5995;SDS011;3026;53.612;7.278;2023-03-31T08:18:12;7.40;;;3.33;;
5995;SDS011;3026;53.612;7.278;2023-03-31T08:20:39;10.37;;;3.73;;
5995;SDS011;3026;53.612;7.278;2023-03-31T08:23:09;6.57;;;4.00;;
5995;SDS011;3026;53.612;7.278;2023-03-31T08:25:36;7.93;;;3.50;;
5995;SDS011;3026;53.612;7.278;2023-03-31T08:28:05;5.40;;;3.63;;
5995;SDS011;3026;53.612;7.278;2023-03-31T08:30:35;5.47;;;3.27;;
5995;SDS011;3026;53.612;7.278;2023-03-31T08:33:03;8.17;;;3.30;;
5995;SDS011;3026;53.612;7.278;2023-03-31T08:35:29;4.27;;;3.30;;
5995;SDS011;3026;53.612;7.278;2023-03-31T08:37:56;14.13;;;4.17;;
5995;SDS011;3026;53.612;7.278;2023-03-31T08:40:25;36.33;;;4.70;;
5995;SDS011;3026;53.612;7.278;2023-03-31T08:42:54;8.73;;;3.53;;
5995;SDS011;3026;53.612;7.278;2023-03-31T08:45:28;14.87;;;4.27;;
5995;SDS011;3026;53.612;7.278;2023-03-31T08:47:59;10.27;;;3.67;;
5995;SDS011;3026;53.612;7.278;2023-03-31T08:50:29;6.10;;;3.30;;
5995;SDS011;3026;53.612;7.278;2023-03-31T08:53:01;8.03;;;3.53;;
5995;SDS011;3026;53.612;7.278;2023-03-31T08:55:33;6.73;;;3.53;;
5995;SDS011;3026;53.612;7.278;2023-03-31T08:58:05;7.20;;;3.23;;
5995;SDS011;3026;53.612;7.278;2023-03-31T09:00:42;8.70;;;3.30;;
5995;SDS011;3026;53.612;7.278;2023-03-31T09:03:17;5.27;;;3.10;;
5995;SDS011;3026;53.612;7.278;2023-03-31T09:05:56;5.40;;;3.30;;
5995;SDS011;3026;53.612;7.278;2023-03-31T09:08:33;6.40;;;3.30;;
5995;SDS011;3026;53.612;7.278;2023-03-31T09:11:03;5.03;;;2.93;;
5995;SDS011;3026;53.612;7.278;2023-03-31T09:16:32;11.63;;;3.40;;
5995;SDS011;3026;53.612;7.278;2023-03-31T09:19:07;4.27;;;3.03;;
5995;SDS011;3026;53.612;7.278;2023-03-31T09:21:40;3.83;;;2.87;;
5995;SDS011;3026;53.612;7.278;2023-03-31T09:24:11;4.10;;;2.97;;
5995;SDS011;3026;53.612;7.278;2023-03-31T09:26:44;6.37;;;3.23;;
5995;SDS011;3026;53.612;7.278;2023-03-31T09:29:18;4.77;;;3.10;;
5995;SDS011;3026;53.612;7.278;2023-03-31T09:31:55;6.20;;;3.43;;
5995;SDS011;3026;53.612;7.278;2023-03-31T09:34:27;13.73;;;3.73;;
5995;SDS011;3026;53.612;7.278;2023-03-31T09:36:56;11.10;;;4.00;;
5995;SDS011;3026;53.612;7.278;2023-03-31T09:39:23;6.93;;;3.30;;
5995;SDS011;3026;53.612;7.278;2023-03-31T09:41:50;9.43;;;3.33;;
5995;SDS011;3026;53.612;7.278;2023-03-31T09:44:26;6.13;;;3.60;;
5995;SDS011;3026;53.612;7.278;2023-03-31T09:47:03;6.90;;;3.07;;
5995;SDS011;3026;53.612;7.278;2023-03-31T09:49:34;11.87;;;3.97;;
5995;SDS011;3026;53.612;7.278;2023-03-31T09:52:03;14.53;;;3.40;;
5995;SDS011;3026;53.612;7.278;2023-03-31T09:54:34;11.37;;;2.93;;
5995;SDS011;3026;53.612;7.278;2023-03-31T09:57:14;8.90;;;2.93;;
5995;SDS011;3026;53.612;7.278;2023-03-31T09:59:49;6.90;;;3.30;;
5995;SDS011;3026;53.612;7.278;2023-03-31T10:02:22;5.60;;;3.33;;
5995;SDS011;3026;53.612;7.278;2023-03-31T10:04:55;5.60;;;3.20;;
5995;SDS011;3026;53.612;7.278;2023-03-31T10:07:22;3.73;;;2.87;;
5995;SDS011;3026;53.612;7.278;2023-03-31T10:09:50;5.43;;;3.90;;
5995;SDS011;3026;53.612;7.278;2023-03-31T10:12:20;5.53;;;4.13;;
5995;SDS011;3026;53.612;7.278;2023-03-31T10:14:49;7.40;;;4.00;;
5995;SDS011;3026;53.612;7.278;2023-03-31T10:17:19;5.67;;;3.57;;
5995;SDS011;3026;53.612;7.278;2023-03-31T10:19:49;4.90;;;3.50;;
5995;SDS011;3026;53.612;7.278;2023-03-31T10:22:25;5.13;;;4.00;;
5995;SDS011;3026;53.612;7.278;2023-03-31T10:24:53;5.47;;;4.33;;
5995;SDS011;3026;53.612;7.278;2023-03-31T10:27:32;6.73;;;3.97;;
5995;SDS011;3026;53.612;7.278;2023-03-31T10:30:00;8.27;;;4.57;;
5995;SDS011;3026;53.612;7.278;2023-03-31T10:32:29;7.27;;;4.17;;
5995;SDS011;3026;53.612;7.278;2023-03-31T10:35:05;8.80;;;4.43;;
5995;SDS011;3026;53.612;7.278;2023-03-31T10:37:37;5.17;;;4.40;;
5995;SDS011;3026;53.612;7.278;2023-03-31T10:40:11;5.00;;;4.50;;
5995;SDS011;3026;53.612;7.278;2023-03-31T10:42:40;5.67;;;4.40;;
5995;SDS011;3026;53.612;7.278;2023-03-31T10:45:12;7.47;;;5.03;;
5995;SDS011;3026;53.612;7.278;2023-03-31T10:47:49;8.90;;;6.13;;
5995;SDS011;3026;53.612;7.278;2023-03-31T10:50:21;8.47;;;5.40;;
5995;SDS011;3026;53.612;7.278;2023-03-31T10:52:53;8.03;;;5.60;;
5995;SDS011;3026;53.612;7.278;2023-03-31T10:55:29;7.43;;;5.20;;
5995;SDS011;3026;53.612;7.278;2023-03-31T10:58:02;9.47;;;6.27;;
5995;SDS011;3026;53.612;7.278;2023-03-31T11:00:36;7.57;;;6.50;;
5995;SDS011;3026;53.612;7.278;2023-03-31T11:06:10;9.10;;;6.13;;
5995;SDS011;3026;53.612;7.278;2023-03-31T11:08:46;8.37;;;6.33;;
5995;SDS011;3026;53.612;7.278;2023-03-31T11:11:25;8.60;;;5.83;;
5995;SDS011;3026;53.612;7.278;2023-03-31T11:14:04;9.83;;;5.67;;
5995;SDS011;3026;53.612;7.278;2023-03-31T11:16:38;8.73;;;6.03;;
5995;SDS011;3026;53.612;7.278;2023-03-31T11:19:15;7.53;;;5.90;;
5995;SDS011;3026;53.612;7.278;2023-03-31T11:21:55;6.07;;;5.47;;
5995;SDS011;3026;53.612;7.278;2023-03-31T11:24:34;5.87;;;4.87;;
5995;SDS011;3026;53.612;7.278;2023-03-31T11:27:24;8.00;;;4.70;;
5995;SDS011;3026;53.612;7.278;2023-03-31T11:30:03;6.63;;;5.03;;
5995;SDS011;3026;53.612;7.278;2023-03-31T11:32:46;8.93;;;5.00;;
5995;SDS011;3026;53.612;7.278;2023-03-31T11:35:34;8.20;;;4.67;;
5995;SDS011;3026;53.612;7.278;2023-03-31T11:41:27;8.97;;;4.50;;
5995;SDS011;3026;53.612;7.278;2023-03-31T11:44:00;7.90;;;4.80;;
5995;SDS011;3026;53.612;7.278;2023-03-31T11:46:31;10.80;;;5.53;;
5995;SDS011;3026;53.612;7.278;2023-03-31T11:49:07;7.43;;;5.57;;
5995;SDS011;3026;53.612;7.278;2023-03-31T11:51:41;6.03;;;5.00;;
5995;SDS011;3026;53.612;7.278;2023-03-31T11:54:15;7.47;;;4.60;;
5995;SDS011;3026;53.612;7.278;2023-03-31T11:56:45;7.20;;;4.60;;
5995;SDS011;3026;53.612;7.278;2023-03-31T11:59:13;7.53;;;4.60;;
5995;SDS011;3026;53.612;7.278;2023-03-31T12:01:43;9.40;;;4.57;;
5995;SDS011;3026;53.612;7.278;2023-03-31T12:04:17;6.17;;;4.70;;
5995;SDS011;3026;53.612;7.278;2023-03-31T12:06:51;9.50;;;5.00;;
5995;SDS011;3026;53.612;7.278;2023-03-31T12:09:24;7.50;;;4.50;;
5995;SDS011;3026;53.612;7.278;2023-03-31T12:11:58;4.30;;;3.73;;
5995;SDS011;3026;53.612;7.278;2023-03-31T12:14:32;9.63;;;4.33;;
5995;SDS011;3026;53.612;7.278;2023-03-31T12:17:03;6.23;;;4.07;;
5995;SDS011;3026;53.612;7.278;2023-03-31T12:19:38;6.33;;;4.30;;
5995;SDS011;3026;53.612;7.278;2023-03-31T12:22:12;6.70;;;4.20;;
5995;SDS011;3026;53.612;7.278;2023-03-31T12:24:41;4.63;;;3.47;;
5995;SDS011;3026;53.612;7.278;2023-03-31T12:27:12;3.93;;;2.90;;
5995;SDS011;3026;53.612;7.278;2023-03-31T12:29:43;6.47;;;3.07;;
5995;SDS011;3026;53.612;7.278;2023-03-31T12:32:13;5.53;;;3.20;;
5995;SDS011;3026;53.612;7.278;2023-03-31T12:34:44;3.93;;;3.57;;
5995;SDS011;3026;53.612;7.278;2023-03-31T12:40:19;5.20;;;2.90;;
5995;SDS011;3026;53.612;7.278;2023-03-31T12:43:03;4.67;;;3.20;;
5995;SDS011;3026;53.612;7.278;2023-03-31T12:45:41;5.00;;;3.40;;
5995;SDS011;3026;53.612;7.278;2023-03-31T12:48:18;6.67;;;3.53;;
5995;SDS011;3026;53.612;7.278;2023-03-31T12:51:07;4.63;;;3.33;;
5995;SDS011;3026;53.612;7.278;2023-03-31T12:53:49;6.53;;;3.60;;
5995;SDS011;3026;53.612;7.278;2023-03-31T12:56:27;6.80;;;3.93;;
5995;SDS011;3026;53.612;7.278;2023-03-31T12:59:17;5.90;;;3.10;;
5995;SDS011;3026;53.612;7.278;2023-03-31T13:02:10;6.10;;;3.60;;
5995;SDS011;3026;53.612;7.278;2023-03-31T13:04:47;4.03;;;2.60;;
5995;SDS011;3026;53.612;7.278;2023-03-31T13:10:27;2.73;;;1.83;;
5995;SDS011;3026;53.612;7.278;2023-03-31T13:12:57;1.83;;;1.27;;
5995;SDS011;3026;53.612;7.278;2023-03-31T13:15:29;4.60;;;1.77;;
5995;SDS011;3026;53.612;7.278;2023-03-31T13:17:57;3.67;;;1.43;;
5995;SDS011;3026;53.612;7.278;2023-03-31T13:20:32;1.10;;;0.90;;
5995;SDS011;3026;53.612;7.278;2023-03-31T13:23:03;1.17;;;0.90;;
5995;SDS011;3026;53.612;7.278;2023-03-31T13:28:31;1.67;;;0.80;;
5995;SDS011;3026;53.612;7.278;2023-03-31T13:53:34;2.30;;;1.20;;
5995;SDS011;3026;53.612;7.278;2023-03-31T13:56:22;2.43;;;1.00;;
5995;SDS011;3026;53.612;7.278;2023-03-31T13:59:10;1.83;;;1.20;;
5995;SDS011;3026;53.612;7.278;2023-03-31T14:04:52;1.53;;;1.20;;
5995;SDS011;3026;53.612;7.278;2023-03-31T14:07:46;2.53;;;1.33;;
5995;SDS011;3026;53.612;7.278;2023-03-31T14:10:23;3.30;;;1.30;;
5995;SDS011;3026;53.612;7.278;2023-03-31T14:13:02;3.73;;;1.57;;
5995;SDS011;3026;53.612;7.278;2023-03-31T14:15:30;3.87;;;1.30;;
5995;SDS011;3026;53.612;7.278;2023-03-31T14:17:58;2.50;;;1.40;;
5995;SDS011;3026;53.612;7.278;2023-03-31T14:20:28;2.90;;;1.23;;
5995;SDS011;3026;53.612;7.278;2023-03-31T14:23:07;3.40;;;1.70;;
5995;SDS011;3026;53.612;7.278;2023-03-31T14:25:45;2.80;;;1.43;;
5995;SDS011;3026;53.612;7.278;2023-03-31T14:28:23;2.33;;;1.40;;
5995;SDS011;3026;53.612;7.278;2023-03-31T14:31:02;3.33;;;1.53;;
5995;SDS011;3026;53.612;7.278;2023-03-31T14:33:41;3.67;;;2.00;;
5995;SDS011;3026;53.612;7.278;2023-03-31T14:36:18;4.43;;;2.00;;
5995;SDS011;3026;53.612;7.278;2023-03-31T14:38:54;4.10;;;2.17;;
5995;SDS011;3026;53.612;7.278;2023-03-31T14:41:27;4.80;;;2.20;;
5995;SDS011;3026;53.612;7.278;2023-03-31T14:43:55;2.27;;;1.60;;
5995;SDS011;3026;53.612;7.278;2023-03-31T14:46:25;5.70;;;1.80;;
5995;SDS011;3026;53.612;7.278;2023-03-31T14:48:56;3.37;;;1.50;;
5995;SDS011;3026;53.612;7.278;2023-03-31T14:51:26;4.80;;;2.17;;
5995;SDS011;3026;53.612;7.278;2023-03-31T14:53:55;3.07;;;2.23;;
5995;SDS011;3026;53.612;7.278;2023-03-31T14:56:24;5.47;;;2.00;;
5995;SDS011;3026;53.612;7.278;2023-03-31T14:58:55;3.40;;;1.93;;
5995;SDS011;3026;53.612;7.278;2023-03-31T15:01:24;3.60;;;1.93;;
5995;SDS011;3026;53.612;7.278;2023-03-31T15:03:55;5.80;;;2.20;;
5995;SDS011;3026;53.612;7.278;2023-03-31T15:06:22;5.10;;;2.03;;
5995;SDS011;3026;53.612;7.278;2023-03-31T15:08:52;5.43;;;1.73;;
5995;SDS011;3026;53.612;7.278;2023-03-31T15:11:23;3.07;;;1.80;;
5995;SDS011;3026;53.612;7.278;2023-03-31T15:13:52;3.73;;;1.43;;
5995;SDS011;3026;53.612;7.278;2023-03-31T15:16:27;7.07;;;3.13;;
5995;SDS011;3026;53.612;7.278;2023-03-31T15:18:57;11.17;;;4.80;;
5995;SDS011;3026;53.612;7.278;2023-03-31T15:21:27;7.40;;;4.00;;
5995;SDS011;3026;53.612;7.278;2023-03-31T15:23:57;7.17;;;3.50;;
5995;SDS011;3026;53.612;7.278;2023-03-31T15:26:25;5.53;;;2.50;;
5995;SDS011;3026;53.612;7.278;2023-03-31T15:28:58;4.73;;;2.77;;
5995;SDS011;3026;53.612;7.278;2023-03-31T15:31:28;4.30;;;1.80;;
5995;SDS011;3026;53.612;7.278;2023-03-31T15:33:56;2.63;;;1.57;;
5995;SDS011;3026;53.612;7.278;2023-03-31T15:36:23;4.17;;;2.10;;
5995;SDS011;3026;53.612;7.278;2023-03-31T15:38:55;3.17;;;1.80;;
5995;SDS011;3026;53.612;7.278;2023-03-31T15:41:27;2.40;;;1.67;;
5995;SDS011;3026;53.612;7.278;2023-03-31T15:44:02;7.00;;;4.93;;
5995;SDS011;3026;53.612;7.278;2023-03-31T15:46:54;7.83;;;5.20;;
5995;SDS011;3026;53.612;7.278;2023-03-31T15:49:26;4.53;;;3.00;;
5995;SDS011;3026;53.612;7.278;2023-03-31T15:51:54;4.43;;;2.97;;
5995;SDS011;3026;53.612;7.278;2023-03-31T15:54:30;4.60;;;3.23;;
5995;SDS011;3026;53.612;7.278;2023-03-31T15:57:01;1.83;;;1.47;;
5995;SDS011;3026;53.612;7.278;2023-03-31T15:59:30;2.30;;;1.50;;
5995;SDS011;3026;53.612;7.278;2023-03-31T16:02:11;1.97;;;1.03;;
5995;SDS011;3026;53.612;7.278;2023-03-31T16:04:40;2.63;;;1.20;;
5995;SDS011;3026;53.612;7.278;2023-03-31T16:07:12;2.57;;;1.40;;
5995;SDS011;3026;53.612;7.278;2023-03-31T16:09:44;3.37;;;1.67;;
5995;SDS011;3026;53.612;7.278;2023-03-31T16:12:18;3.17;;;1.30;;
5995;SDS011;3026;53.612;7.278;2023-03-31T16:14:49;3.73;;;1.63;;
5995;SDS011;3026;53.612;7.278;2023-03-31T16:17:25;4.23;;;1.90;;
5995;SDS011;3026;53.612;7.278;2023-03-31T16:19:57;4.27;;;2.50;;
5995;SDS011;3026;53.612;7.278;2023-03-31T16:22:32;5.03;;;3.07;;
5995;SDS011;3026;53.612;7.278;2023-03-31T16:25:08;6.20;;;3.30;;
5995;SDS011;3026;53.612;7.278;2023-03-31T16:27:38;3.80;;;2.60;;
5995;SDS011;3026;53.612;7.278;2023-03-31T16:30:08;4.77;;;2.80;;
5995;SDS011;3026;53.612;7.278;2023-03-31T16:32:38;4.23;;;2.47;;
5995;SDS011;3026;53.612;7.278;2023-03-31T16:35:05;4.70;;;2.40;;